Briefing drone pour Plombieres-les-dijon

Rechercher une autre localisation

Conditions de vol :


Nous sommes le : Samedi 20 avril 2024
Il est 00:29 UTC (02:29 LT)

Lever de soleil : 04:14 UTC (06:14 LT)
Coucher de soleil : 19:02 UTC (21:02 LT)

Météo

L'essentiel des conditions de vol

VIGILANCE MÉTÉO FRANCE - Côte-dOr (21)
Pas de vigilances particulieres
CARTE TEMSI
CARTES DES FRONTS
METAR de LFSD
LFSD 200000Z AUTO 33006KT 300V010 9999 BKN023 OVC049 07/05 Q1018

Date d'émission: 20/04/2024
Heure d'émission: 00:00 UTC
Vent: 330° (variable du 300° au 010°) pour 6 KT (11 km/h)
Visibilité horizontale: > 10 km
Plafond :
- Nuages morcelés à 2300ft (701m)
- Couvert à 4900ft (1494m)
Température: 7 °C
Point de rosée: 5 °C
Humidité: 87%
Pression (QNH): 1018 hPa
TAF de LFSD
LFSD 010600Z 0100/0124 CNL

Conditions prévues :

Heure d'émission : Bulletin éffectué le 01 à 00:00 UTC
Prévision : Valide du 01 a 00:00 UTC au 01 a 23:59 UTC
Nuages : à 0ft (0 m)
WEBCAM POUR PLOMBIERES-LES-DIJON

Réglementation

Voler en sécurité

CARTES AERONAUTIQUE 1/500.000
CARTE AZBA (Reseau basse altitude)
CARTES VAC (LFSD)
SUP AIP




Chargement des AIP...
NOTAM (PLOMBIERES-LES-DIJON + Terrain à proximité / FIR )




Chargement des NOTAMS...
CONTACT PREFECTURE 21
Côte-dOr (21) : [email protected]


Avertissement : Les données mises à disposition sont indicatives. Oxygène Drone ne pourra être tenu responsable de dégâts causés aux biens et aux personnes.